CAG weather

Casacara Cayta Airport
Codazzi, César Department, Colombia

Public forecast

Using degrees Celsius for public forecast. Weather courtesy of forecast.io.

METAR (pilot weather report)

Closest report is Alfonso López Pumarejo Airport, 30.4 nm (56.4 km) N. Retrieved 2019/04/21 17:00 UTC (51 minutes ago):

SKVP 211700Z 08013KT 9999 FEW020 SCT200 33/21 A2992

TAF (pilot weather forecast)

Closest forecast is La Chinita International Airport, 97.7 nm (181.0 km) ENE. Retrieved 2019/04/21 12:03 UTC (6 hours ago):

TAF SVMC 211000Z 2112/2212 00000KT 9999 SCT013 TX35/18Z TN25/08Z TEMPO 2112/2114 VRB03KT 8000 DZ BKN010 FM211500 08007KT 9999 SCT013 SCT060